Time;durP1;ratioP1;P1;durP2;ratioP2;P2;SDS_P1;SDS_P2;PMS_P1;PMS_P2;Temp;Humidity;BMP_temperature;BMP_pressure;BME280_temperature;BME280_humidity;BME280_pressure;Samples;Min_cycle;Max_cycle;Signal;HPM_P1;HPM_P2
2022/01/02 00:01:26;;;;;;;43.10;27.77;;;10.70;99.90;;;;;;5100571;28;20249;-54
2022/01/02 00:03:54;;;;;;;41.80;27.47;;;10.70;99.90;;;;;;5102828;28;20279;-54
2022/01/02 00:06:25;;;;;;;43.87;28.47;;;10.70;99.90;;;;;;5104234;28;20215;-54
2022/01/02 00:09:01;;;;;;;47.57;30.27;;;10.70;99.90;;;;;;5102022;28;20239;-55
2022/01/02 00:11:29;;;;;;;47.97;29.10;;;10.70;99.90;;;;;;5101673;28;20263;-55
2022/01/02 00:14:05;;;;;;;50.87;28.77;;;10.60;99.90;;;;;;5099392;28;20231;-54
2022/01/02 00:16:37;;;;;;;50.40;29.67;;;10.60;99.90;;;;;;5092811;28;20224;-54
2022/01/02 00:19:17;;;;;;;44.27;29.33;;;10.70;99.90;;;;;;5114000;27;20242;-55
2022/01/02 00:21:47;;;;;;;51.20;29.80;;;10.70;99.90;;;;;;5113255;28;21039;-55
2022/01/02 00:24:19;;;;;;;43.70;27.10;;;10.60;99.90;;;;;;5114292;28;20200;-54
2022/01/02 00:26:50;;;;;;;49.03;30.50;;;10.60;99.90;;;;;;5113956;28;20236;-53
2022/01/02 00:29:21;;;;;;;45.33;28.70;;;10.60;99.90;;;;;;5113119;28;20200;-55
2022/01/02 00:31:55;;;;;;;51.83;29.73;;;10.70;99.90;;;;;;5093756;28;20268;-54
2022/01/02 00:34:23;;;;;;;44.90;28.07;;;10.60;99.90;;;;;;5095709;28;20625;-56
2022/01/02 00:36:51;;;;;;;41.57;26.93;;;10.60;99.90;;;;;;5111319;28;20288;-54
2022/01/02 00:39:20;;;;;;;52.43;30.07;;;10.60;99.90;;;;;;5108713;28;20192;-53
2022/01/02 00:41:54;;;;;;;44.57;27.63;;;10.60;99.90;;;;;;5113637;28;20234;-54
2022/01/02 00:44:33;;;;;;;46.00;28.27;;;10.60;99.90;;;;;;5107231;28;20204;-54
2022/01/02 00:47:12;;;;;;;53.37;30.93;;;10.70;99.90;;;;;;5113157;28;20273;-54
2022/01/02 00:49:42;;;;;;;42.97;27.97;;;10.60;99.90;;;;;;5113890;28;20227;-54
2022/01/02 00:52:17;;;;;;;42.40;27.87;;;10.60;99.90;;;;;;5112449;28;20207;-55
2022/01/02 00:54:46;;;;;;;45.90;28.17;;;10.60;99.90;;;;;;5114081;28;20211;-54
2022/01/02 00:57:17;;;;;;;44.53;27.30;;;10.60;99.90;;;;;;5113611;27;20231;-53
2022/01/02 00:59:49;;;;;;;41.37;27.63;;;10.60;99.90;;;;;;5101919;28;21028;-57
2022/01/02 01:02:25;;;;;;;41.97;28.27;;;10.60;99.90;;;;;;5092804;28;20257;-55
2022/01/02 01:04:56;;;;;;;45.70;28.50;;;10.50;99.90;;;;;;5092474;28;20207;-55
2022/01/02 01:07:26;;;;;;;44.77;26.70;;;10.40;99.90;;;;;;5093224;28;20220;-55
2022/01/02 01:09:56;;;;;;;46.63;27.70;;;10.40;99.90;;;;;;5092379;28;20204;-54
2022/01/02 01:12:25;;;;;;;38.43;25.87;;;10.40;99.90;;;;;;5092307;28;20244;-55
2022/01/02 01:14:53;;;;;;;40.27;26.40;;;10.50;99.90;;;;;;5121089;27;20654;-53
2022/01/02 01:17:24;;;;;;;41.57;26.97;;;10.50;99.90;;;;;;5133240;27;20707;-53
2022/01/02 01:19:53;;;;;;;41.47;26.67;;;10.50;99.90;;;;;;5125210;27;20238;-54
2022/01/02 01:22:21;;;;;;;36.27;24.63;;;10.50;99.90;;;;;;5132445;27;20224;-55
2022/01/02 01:24:49;;;;;;;39.33;24.90;;;10.40;99.90;;;;;;5113281;28;20199;-52
2022/01/02 01:27:17;;;;;;;35.13;25.10;;;10.40;99.90;;;;;;5112094;28;20263;-54
2022/01/02 01:29:46;;;;;;;39.53;24.63;;;10.40;99.90;;;;;;5112781;28;20264;-55
2022/01/02 01:32:14;;;;;;;44.70;25.87;;;10.40;99.90;;;;;;5112156;28;20242;-57
2022/01/02 01:34:44;;;;;;;43.20;27.27;;;10.30;99.90;;;;;;5112098;28;20195;-54
2022/01/02 01:37:13;;;;;;;38.27;25.03;;;10.30;99.90;;;;;;5112323;28;20220;-54
2022/01/02 01:39:41;;;;;;;38.23;26.13;;;10.30;99.90;;;;;;5112823;28;20242;-54
2022/01/02 01:42:11;;;;;;;41.40;26.20;;;10.40;99.90;;;;;;5103510;28;20716;-55
2022/01/02 01:45:04;;;;;;;42.63;27.63;;;10.30;99.90;;;;;;5092428;28;20204;-54
2022/01/02 01:47:29;;;;;;;45.00;27.87;;;10.20;99.90;;;;;;5091800;28;20231;-55
2022/01/02 01:49:58;;;;;;;41.80;26.20;;;10.10;99.90;;;;;;5092645;28;20245;-55
2022/01/02 01:52:26;;;;;;;42.33;26.70;;;10.20;99.90;;;;;;5094762;28;20215;-53
2022/01/02 01:54:54;;;;;;;42.77;27.40;;;10.20;99.90;;;;;;5112581;28;20578;-55
2022/01/02 01:57:23;;;;;;;42.33;28.07;;;10.20;99.90;;;;;;5112244;28;20255;-55
2022/01/02 01:59:51;;;;;;;43.37;26.93;;;10.20;99.90;;;;;;5110184;28;20204;-54
2022/01/02 02:02:19;;;;;;;42.87;26.40;;;10.10;99.90;;;;;;5112271;28;20256;-53
2022/01/02 02:04:47;;;;;;;44.50;28.47;;;10.10;99.90;;;;;;5112053;28;20296;-55
2022/01/02 02:07:20;;;;;;;45.47;27.67;;;10.10;99.90;;;;;;5112055;28;20220;-55
2022/01/02 02:10:01;;;;;;;46.43;28.03;;;10.10;99.90;;;;;;5112026;28;20207;-55
2022/01/02 02:12:30;;;;;;;44.10;27.57;;;10.10;99.90;;;;;;5091091;28;20224;-54
2022/01/02 02:14:58;;;;;;;44.93;28.13;;;10.10;99.90;;;;;;5111594;28;20214;-53
2022/01/02 02:17:27;;;;;;;43.67;26.90;;;10.10;99.90;;;;;;5111947;28;20288;-54
2022/01/02 02:20:10;;;;;;;42.70;27.33;;;10.20;99.90;;;;;;5112236;28;20196;-54
2022/01/02 02:22:40;;;;;;;43.00;26.73;;;10.30;99.90;;;;;;5110876;28;20199;-55
2022/01/02 02:25:08;;;;;;;36.97;24.90;;;10.30;99.90;;;;;;5112222;28;20326;-55
2022/01/02 02:27:37;;;;;;;37.30;24.30;;;10.30;99.90;;;;;;5110832;28;20719;-54
2022/01/02 02:30:05;;;;;;;39.83;25.73;;;10.30;99.90;;;;;;5111906;28;20209;-55
2022/01/02 02:32:34;;;;;;;39.07;26.77;;;10.40;99.90;;;;;;5111861;28;20255;-53
2022/01/02 02:35:04;;;;;;;39.37;26.40;;;10.30;99.90;;;;;;5110958;28;20204;-54
2022/01/02 02:37:32;;;;;;;37.40;25.07;;;10.20;99.90;;;;;;5111758;28;20219;-53
2022/01/02 02:40:01;;;;;;;41.30;25.30;;;10.10;99.90;;;;;;5121786;27;20203;-54
2022/01/02 02:42:37;;;;;;;38.00;25.67;;;10.10;99.90;;;;;;5107488;27;20201;-54
2022/01/02 02:50:45;;;;;;;41.20;26.83;;;10.20;99.90;;;;;;5090813;28;20264;-54
2022/01/02 02:53:14;;;;;;;42.93;26.80;;;10.20;99.90;;;;;;5100808;28;20221;-53
2022/01/02 02:55:46;;;;;;;41.60;26.50;;;10.10;99.90;;;;;;5111026;28;20224;-54
2022/01/02 03:01:04;;;;;;;41.10;26.67;;;10.10;99.90;;;;;;5090738;28;20250;-54
2022/01/02 03:03:33;;;;;;;47.30;28.07;;;10.10;99.90;;;;;;5091130;28;20208;-54
2022/01/02 03:06:02;;;;;;;45.17;27.70;;;10.00;99.90;;;;;;5090591;28;20224;-52
2022/01/02 03:08:31;;;;;;;46.07;28.30;;;10.00;99.90;;;;;;5127539;28;20238;-53
2022/01/02 03:10:59;;;;;;;38.97;26.20;;;10.10;99.90;;;;;;5121218;28;20729;-54
2022/01/02 03:13:27;;;;;;;40.57;26.77;;;10.10;99.90;;;;;;5101649;28;20284;-55
2022/01/02 03:15:55;;;;;;;39.17;26.20;;;10.10;99.90;;;;;;5109176;28;20777;-54
2022/01/02 03:18:24;;;;;;;47.43;29.40;;;10.10;99.90;;;;;;5111001;28;20199;-55
2022/01/02 03:20:52;;;;;;;47.93;30.43;;;10.10;99.90;;;;;;5110897;28;20212;-53
2022/01/02 03:23:21;;;;;;;43.97;27.47;;;10.10;99.90;;;;;;5110802;28;20238;-55
2022/01/02 03:25:49;;;;;;;38.47;26.03;;;10.10;99.90;;;;;;5110370;28;20255;-54
2022/01/02 03:28:18;;;;;;;39.93;26.63;;;10.10;99.90;;;;;;5110829;28;20207;-52
2022/01/02 03:30:46;;;;;;;46.67;29.00;;;10.10;99.90;;;;;;5111389;28;20236;-52
2022/01/02 03:33:14;;;;;;;40.00;27.07;;;10.10;99.90;;;;;;5110852;28;20219;-56
2022/01/02 03:35:42;;;;;;;42.87;27.93;;;10.00;99.90;;;;;;5110445;28;20282;-55
2022/01/02 03:38:11;;;;;;;44.63;28.40;;;9.90;99.90;;;;;;5104121;28;20269;-53
2022/01/02 03:40:41;;;;;;;43.23;27.40;;;9.90;99.90;;;;;;5106083;28;20203;-55
2022/01/02 03:43:09;;;;;;;39.93;25.80;;;9.90;99.90;;;;;;5110748;28;20622;-54
2022/01/02 03:45:37;;;;;;;43.53;27.80;;;10.00;99.90;;;;;;5091760;28;20212;-54
2022/01/02 03:48:05;;;;;;;42.50;28.43;;;10.10;99.90;;;;;;5090723;28;20216;-54
2022/01/02 03:50:33;;;;;;;41.30;28.47;;;10.00;99.90;;;;;;5091341;28;20243;-54
2022/01/02 03:53:01;;;;;;;47.27;29.80;;;10.00;99.90;;;;;;5110519;28;20262;-54
2022/01/02 03:55:30;;;;;;;47.83;30.30;;;9.90;99.90;;;;;;5114801;27;20253;-55
2022/01/02 03:57:59;;;;;;;55.70;32.43;;;9.90;99.90;;;;;;5134637;27;20241;-54
2022/01/02 04:00:28;;;;;;;45.90;28.67;;;9.90;99.90;;;;;;5118238;27;20204;-54
2022/01/02 04:02:56;;;;;;;43.43;29.07;;;9.90;99.90;;;;;;5117641;27;20199;-54
2022/01/02 04:05:24;;;;;;;51.07;31.43;;;10.00;99.90;;;;;;5134174;27;20655;-54
2022/01/02 04:07:52;;;;;;;60.63;34.40;;;10.10;99.90;;;;;;5115636;27;20197;-54
2022/01/02 04:10:21;;;;;;;46.97;30.20;;;10.10;99.90;;;;;;5111815;28;20295;-54
2022/01/02 04:12:49;;;;;;;47.13;30.57;;;10.10;99.90;;;;;;5114218;28;20258;-55
2022/01/02 04:15:19;;;;;;;50.50;31.33;;;10.00;99.90;;;;;;5114854;28;20212;-56
2022/01/02 04:17:47;;;;;;;45.97;30.47;;;9.90;99.90;;;;;;5113697;28;20563;-54
2022/01/02 04:20:16;;;;;;;53.50;31.70;;;9.90;99.90;;;;;;5114668;28;20215;-54
2022/01/02 04:22:46;;;;;;;54.60;31.47;;;9.80;99.90;;;;;;5109299;28;20249;-54
2022/01/02 04:25:14;;;;;;;66.77;36.37;;;9.80;99.90;;;;;;5093136;28;20733;-54
2022/01/02 04:27:43;;;;;;;50.27;33.03;;;9.80;99.90;;;;;;5093142;28;20258;-55
2022/01/02 04:30:13;;;;;;;56.07;32.17;;;9.80;99.90;;;;;;5107429;28;20253;-54
2022/01/02 04:32:42;;;;;;;56.23;33.20;;;9.80;99.90;;;;;;5113448;28;20247;-54
2022/01/02 04:35:11;;;;;;;72.77;36.10;;;9.80;99.90;;;;;;5113840;28;20241;-55
2022/01/02 04:37:39;;;;;;;95.20;40.47;;;9.80;99.90;;;;;;5113188;28;20254;-55
2022/01/02 04:40:08;;;;;;;64.00;35.13;;;9.70;99.90;;;;;;5124732;27;20321;-55
2022/01/02 04:42:36;;;;;;;65.07;35.37;;;9.70;99.90;;;;;;5120444;27;20246;-55
2022/01/02 04:45:07;;;;;;;56.57;33.90;;;9.70;99.90;;;;;;5093330;28;20212;-56
2022/01/02 04:47:35;;;;;;;66.73;36.50;;;9.70;99.90;;;;;;5093271;28;20229;-55
2022/01/02 04:50:06;;;;;;;50.60;31.77;;;9.70;99.90;;;;;;5093203;28;20243;-52
2022/01/02 04:52:34;;;;;;;60.17;33.80;;;9.70;99.90;;;;;;5110356;28;20255;-53
2022/01/02 04:55:03;;;;;;;66.87;35.83;;;9.80;99.90;;;;;;5113945;28;20259;-55
2022/01/02 04:57:31;;;;;;;70.97;36.53;;;9.80;99.90;;;;;;5113370;28;20255;-54
2022/01/02 04:59:59;;;;;;;62.97;35.03;;;9.80;99.90;;;;;;5120445;27;20246;-56
2022/01/02 05:02:27;;;;;;;77.10;36.63;;;9.80;99.90;;;;;;5133718;27;20200;-56
2022/01/02 05:04:55;;;;;;;79.63;38.10;;;9.80;99.90;;;;;;5104606;27;20203;-54
2022/01/02 05:07:24;;;;;;;73.70;36.47;;;9.70;99.90;;;;;;5112051;28;20223;-55
2022/01/02 05:09:52;;;;;;;61.17;34.50;;;9.70;99.90;;;;;;5113175;28;20252;-53
2022/01/02 05:12:20;;;;;;;53.67;32.07;;;9.70;99.90;;;;;;5112485;28;20266;-52
2022/01/02 05:14:48;;;;;;;74.77;36.73;;;9.70;99.90;;;;;;5112839;28;20203;-54
2022/01/02 05:17:17;;;;;;;65.23;35.80;;;9.70;99.90;;;;;;5112698;28;20638;-54
2022/01/02 05:19:45;;;;;;;71.43;35.93;;;9.70;99.90;;;;;;5113274;28;20239;-55
2022/01/02 05:22:13;;;;;;;58.20;33.87;;;9.70;99.90;;;;;;5112812;28;20254;-54
2022/01/02 05:24:42;;;;;;;83.27;36.97;;;9.70;99.90;;;;;;5113046;28;20254;-54
2022/01/02 05:27:10;;;;;;;59.13;33.07;;;9.70;99.90;;;;;;5111654;28;20695;-54
2022/01/02 05:29:38;;;;;;;70.50;35.07;;;9.70;99.90;;;;;;5113184;28;20203;-54
2022/01/02 05:32:06;;;;;;;79.47;37.37;;;9.80;99.90;;;;;;5111770;28;20234;-55
2022/01/02 05:34:34;;;;;;;75.17;36.97;;;9.70;99.90;;;;;;5112785;28;20235;-55
2022/01/02 05:37:02;;;;;;;80.77;35.70;;;9.70;99.90;;;;;;5111626;28;20636;-55
2022/01/02 05:39:30;;;;;;;75.03;36.10;;;9.70;99.90;;;;;;5112233;28;20253;-61
2022/01/02 05:42:01;;;;;;;81.80;37.60;;;9.70;99.90;;;;;;5112413;28;20242;-54
2022/01/02 05:44:30;;;;;;;78.97;37.57;;;9.70;99.90;;;;;;5112503;28;20245;-55
2022/01/02 05:46:58;;;;;;;96.40;39.63;;;9.70;99.90;;;;;;5112408;28;20255;-55
2022/01/02 05:49:26;;;;;;;99.40;40.30;;;9.70;99.90;;;;;;5111581;28;20195;-53
2022/01/02 05:51:55;;;;;;;89.83;39.30;;;9.70;99.90;;;;;;5112100;28;20284;-55
2022/01/02 05:54:23;;;;;;;177.90;47.87;;;9.70;99.90;;;;;;5112440;28;20767;-55
2022/01/02 05:56:52;;;;;;;85.63;39.70;;;9.60;99.90;;;;;;5126923;27;20243;-54
2022/01/02 05:59:21;;;;;;;78.63;38.23;;;9.60;99.90;;;;;;5126075;27;20244;-55
2022/01/02 06:01:49;;;;;;;76.83;39.37;;;9.60;99.90;;;;;;5111735;28;20204;-55
2022/01/02 06:04:17;;;;;;;66.00;36.07;;;9.60;99.90;;;;;;5112282;28;20278;-55
2022/01/02 06:06:45;;;;;;;96.03;41.83;;;9.60;99.90;;;;;;5111226;28;20732;-54
2022/01/02 06:09:13;;;;;;;105.80;42.27;;;9.70;99.90;;;;;;5112354;28;20237;-54
2022/01/02 06:11:41;;;;;;;85.87;38.97;;;9.70;99.90;;;;;;5112245;28;20212;-57
2022/01/02 06:14:09;;;;;;;79.27;36.73;;;9.70;99.90;;;;;;5110553;28;20269;-57
2022/01/02 06:16:39;;;;;;;80.20;39.50;;;9.60;99.90;;;;;;5111571;28;20219;-54
2022/01/02 06:19:07;;;;;;;66.83;36.77;;;9.60;99.90;;;;;;5112176;28;20287;-54
2022/01/02 06:21:35;;;;;;;85.13;38.50;;;9.60;99.90;;;;;;5106366;28;20669;-56
2022/01/02 06:24:03;;;;;;;91.83;41.37;;;9.50;99.90;;;;;;5092577;28;20234;-54
2022/01/02 06:26:31;;;;;;;55.83;34.30;;;9.50;99.90;;;;;;5112423;28;20738;-54
2022/01/02 06:29:03;;;;;;;72.83;37.57;;;9.60;99.90;;;;;;5112800;28;20209;-55
2022/01/02 06:31:31;;;;;;;62.10;35.17;;;9.60;99.90;;;;;;5112279;28;20554;-55
2022/01/02 06:34:00;;;;;;;66.57;36.63;;;9.60;99.90;;;;;;5104797;28;20230;-53
2022/01/02 06:36:29;;;;;;;59.43;34.57;;;9.50;99.90;;;;;;5110717;28;20276;-55
2022/01/02 06:38:57;;;;;;;66.30;35.33;;;9.50;99.90;;;;;;5111395;28;20235;-54
2022/01/02 06:41:25;;;;;;;59.70;34.67;;;9.50;99.90;;;;;;5111351;28;20234;-55
2022/01/02 06:43:53;;;;;;;57.53;33.40;;;9.40;99.90;;;;;;5111026;28;20253;-54
2022/01/02 06:46:22;;;;;;;82.73;38.83;;;9.40;99.90;;;;;;5111394;28;20962;-54
2022/01/02 06:48:50;;;;;;;76.23;37.77;;;9.40;99.90;;;;;;5111422;28;20207;-55
2022/01/02 06:51:40;;;;;;;53.17;31.60;;;9.40;99.90;;;;;;5113211;28;20687;-55
2022/01/02 06:54:08;;;;;;;51.43;31.47;;;9.40;99.90;;;;;;5113468;28;20224;-54
2022/01/02 06:56:36;;;;;;;66.00;35.70;;;9.40;99.90;;;;;;5111280;28;20230;-53
2022/01/02 06:59:04;;;;;;;53.37;32.47;;;9.40;99.90;;;;;;5106925;28;20227;-53
2022/01/02 07:01:32;;;;;;;70.97;36.73;;;9.40;99.90;;;;;;5091597;28;20207;-55
2022/01/02 07:04:00;;;;;;;54.00;32.80;;;9.40;99.90;;;;;;5099791;28;20214;-56
2022/01/02 07:06:28;;;;;;;49.90;30.43;;;9.40;99.90;;;;;;5111034;28;20232;-56
2022/01/02 07:08:58;;;;;;;45.27;28.27;;;9.40;99.90;;;;;;5111666;28;20225;-56
2022/01/02 07:11:26;;;;;;;45.57;29.13;;;9.50;99.90;;;;;;5111095;28;20254;-54
2022/01/02 07:13:54;;;;;;;43.00;27.40;;;9.50;99.90;;;;;;5111441;28;20253;-53
2022/01/02 07:16:22;;;;;;;68.17;34.87;;;9.50;99.90;;;;;;5111561;28;20223;-54
2022/01/02 07:18:51;;;;;;;55.37;32.43;;;9.40;99.90;;;;;;5111619;28;20801;-54
2022/01/02 07:21:19;;;;;;;62.40;32.03;;;9.40;99.90;;;;;;5111542;28;20227;-55
2022/01/02 07:23:48;;;;;;;52.80;30.47;;;9.40;99.90;;;;;;5111029;28;20204;-56
2022/01/02 07:26:18;;;;;;;117.00;43.17;;;9.40;99.90;;;;;;5111278;28;20260;-55
2022/01/02 07:28:46;;;;;;;123.97;42.27;;;9.30;99.90;;;;;;5111804;28;20569;-55
2022/01/02 07:31:14;;;;;;;64.43;36.43;;;9.30;99.90;;;;;;5116047;28;20213;-55
2022/01/02 07:33:42;;;;;;;78.03;35.37;;;9.30;99.90;;;;;;5115006;28;20223;-54
2022/01/02 07:36:11;;;;;;;122.03;38.67;;;9.30;99.90;;;;;;5113118;28;20255;-55
2022/01/02 07:38:39;;;;;;;82.47;36.83;;;9.30;99.90;;;;;;5116256;28;20245;-55
2022/01/02 07:41:07;;;;;;;79.00;34.83;;;9.30;99.90;;;;;;5115643;28;20205;-53
2022/01/02 07:43:36;;;;;;;98.57;37.00;;;9.40;99.90;;;;;;5114833;28;20695;-53
2022/01/02 07:46:05;;;;;;;115.87;38.07;;;9.40;99.90;;;;;;5113289;28;20259;-53
2022/01/02 07:48:33;;;;;;;130.57;42.23;;;9.40;99.90;;;;;;5121711;27;20204;-55
2022/01/02 07:51:01;;;;;;;117.20;41.57;;;9.40;99.90;;;;;;5124214;27;20801;-55
2022/01/02 07:53:29;;;;;;;61.23;35.23;;;9.30;99.90;;;;;;5097949;28;20307;-56
2022/01/02 07:55:57;;;;;;;89.30;41.73;;;9.30;99.90;;;;;;5099951;28;20788;-55
2022/01/02 07:58:26;;;;;;;94.27;43.47;;;9.20;99.90;;;;;;5093096;28;20208;-55
2022/01/02 08:00:55;;;;;;;52.87;34.33;;;9.20;99.90;;;;;;5097315;28;20232;-55
2022/01/02 08:03:24;;;;;;;66.40;39.87;;;9.20;99.90;;;;;;5096544;28;20235;-56
2022/01/02 08:05:53;;;;;;;66.93;40.43;;;9.20;99.90;;;;;;5096369;28;20216;-55
2022/01/02 08:08:21;;;;;;;53.70;33.60;;;9.20;99.90;;;;;;5094547;28;20233;-55
2022/01/02 08:10:49;;;;;;;56.97;34.43;;;9.30;99.90;;;;;;5097259;28;20259;-56
2022/01/02 08:13:17;;;;;;;68.47;37.33;;;9.30;99.90;;;;;;5093501;28;20205;-55
2022/01/02 08:15:48;;;;;;;56.97;33.00;;;9.20;99.90;;;;;;5094055;28;20333;-55
2022/01/02 08:18:17;;;;;;;48.87;30.60;;;9.30;99.90;;;;;;5093830;28;20212;-53
2022/01/02 08:20:46;;;;;;;44.50;29.70;;;9.40;99.90;;;;;;5112694;28;20227;-55
2022/01/02 08:23:15;;;;;;;52.77;31.10;;;9.40;99.90;;;;;;5098699;28;20208;-53
2022/01/02 08:25:43;;;;;;;50.20;30.70;;;9.40;99.90;;;;;;5104234;28;20585;-55
2022/01/02 08:28:11;;;;;;;46.70;30.13;;;9.40;99.90;;;;;;5092681;28;20200;-56
2022/01/02 08:30:43;;;;;;;49.00;32.57;;;9.40;99.90;;;;;;5111166;28;20249;-55
2022/01/02 08:33:11;;;;;;;54.17;32.53;;;9.30;99.90;;;;;;5093959;28;20200;-55
2022/01/02 08:35:41;;;;;;;51.73;32.33;;;9.40;99.90;;;;;;5095308;28;20256;-54
2022/01/02 08:38:09;;;;;;;52.43;32.80;;;9.40;99.90;;;;;;5106861;28;20215;-55
2022/01/02 08:40:39;;;;;;;55.73;37.13;;;9.40;99.90;;;;;;5112290;28;20200;-55
2022/01/02 08:43:07;;;;;;;65.30;38.43;;;9.30;99.90;;;;;;5113424;28;20200;-55
2022/01/02 08:45:36;;;;;;;52.10;33.70;;;9.30;99.90;;;;;;5128169;27;20203;-55
2022/01/02 08:48:05;;;;;;;51.47;32.30;;;9.20;99.90;;;;;;5122916;27;20211;-54
2022/01/02 08:50:34;;;;;;;56.70;33.13;;;9.30;99.90;;;;;;5113262;28;20230;-55
2022/01/02 08:53:03;;;;;;;55.87;31.60;;;9.30;99.90;;;;;;5121588;27;20252;-54
2022/01/02 08:55:33;;;;;;;53.47;31.20;;;9.30;99.90;;;;;;5133866;27;20263;-54
2022/01/02 08:58:01;;;;;;;47.67;29.93;;;9.30;99.90;;;;;;5113531;28;20261;-54
2022/01/02 09:00:29;;;;;;;45.33;29.50;;;9.30;99.90;;;;;;5097188;28;20223;-53
2022/01/02 09:02:57;;;;;;;50.60;30.60;;;9.20;99.90;;;;;;5105056;28;20675;-55
2022/01/02 09:05:26;;;;;;;43.13;28.87;;;9.30;99.90;;;;;;5113586;28;20257;-55
2022/01/02 09:07:55;;;;;;;48.33;29.93;;;9.40;99.90;;;;;;5113111;28;20207;-56
2022/01/02 09:10:24;;;;;;;57.93;40.80;;;9.40;99.90;;;;;;5113508;28;20684;-55
2022/01/02 09:12:52;;;;;;;45.40;30.17;;;9.40;99.90;;;;;;5108573;28;20293;-55
2022/01/02 09:15:21;;;;;;;51.23;35.07;;;9.30;99.90;;;;;;5100439;28;20283;-56
2022/01/02 09:17:49;;;;;;;58.17;41.33;;;9.40;99.90;;;;;;5106194;28;20276;-55
2022/01/02 09:20:18;;;;;;;45.20;30.20;;;9.30;99.90;;;;;;5102700;28;20683;-55
2022/01/02 09:22:46;;;;;;;43.97;32.73;;;9.20;99.90;;;;;;5099224;28;20207;-55
2022/01/02 09:25:15;;;;;;;47.00;31.27;;;9.30;99.90;;;;;;5103284;28;20193;-54
2022/01/02 09:27:45;;;;;;;49.47;30.30;;;9.40;99.90;;;;;;5111848;28;20261;-55
2022/01/02 09:30:14;;;;;;;51.90;30.63;;;9.30;99.90;;;;;;5107958;28;20211;-55
2022/01/02 09:32:42;;;;;;;43.77;32.37;;;9.20;99.90;;;;;;5096882;28;20222;-54
2022/01/02 09:35:12;;;;;;;45.93;33.90;;;9.30;99.90;;;;;;5090630;28;20266;-55
2022/01/02 09:37:40;;;;;;;39.00;26.77;;;9.30;99.90;;;;;;5092424;28;20220;-55
2022/01/02 09:40:09;;;;;;;41.17;27.93;;;9.40;99.90;;;;;;5097989;28;20212;-55
2022/01/02 09:42:39;;;;;;;40.97;27.07;;;9.40;99.90;;;;;;5090533;28;20227;-56
2022/01/02 09:45:09;;;;;;;38.33;27.17;;;9.50;99.90;;;;;;5095726;28;20201;-55
2022/01/02 09:47:38;;;;;;;33.87;25.63;;;9.40;99.90;;;;;;5095283;28;20220;-56
2022/01/02 09:50:11;;;;;;;40.90;26.77;;;9.40;99.90;;;;;;5094822;28;20196;-56
2022/01/02 09:52:39;;;;;;;45.03;28.87;;;9.50;99.90;;;;;;5092689;28;20255;-55
2022/01/02 09:55:08;;;;;;;38.40;26.33;;;9.50;99.90;;;;;;5095890;28;20243;-54
2022/01/02 09:57:36;;;;;;;40.70;28.43;;;9.40;99.90;;;;;;5091224;28;20293;-55
2022/01/02 10:00:05;;;;;;;42.37;29.30;;;9.40;99.90;;;;;;5096553;28;20210;-55
2022/01/02 10:02:56;;;;;;;35.90;27.07;;;9.40;99.90;;;;;;5091239;28;20236;-53
2022/01/02 10:05:26;;;;;;;34.80;24.97;;;9.40;99.90;;;;;;5093780;28;20258;-55
2022/01/02 10:07:55;;;;;;;36.43;25.30;;;9.40;99.90;;;;;;5094832;28;20884;-52
2022/01/02 10:10:34;;;;;;;39.07;26.37;;;9.50;99.90;;;;;;5094183;28;20239;-55
2022/01/02 10:13:03;;;;;;;40.70;27.43;;;9.60;99.90;;;;;;5104702;28;20265;-55
2022/01/02 10:15:34;;;;;;;35.70;25.47;;;9.60;99.90;;;;;;5106290;28;20251;-57
2022/01/02 10:18:06;;;;;;;36.20;26.23;;;9.60;99.90;;;;;;5111520;28;20206;-54
2022/01/02 10:20:36;;;;;;;37.17;27.13;;;9.50;99.90;;;;;;5093182;28;20227;-54
2022/01/02 10:23:16;;;;;;;33.43;23.57;;;9.60;99.90;;;;;;5090800;28;20249;-55
2022/01/02 10:25:47;;;;;;;30.53;22.33;;;9.70;99.90;;;;;;5092949;28;20240;-55
2022/01/02 10:28:34;;;;;;;29.30;23.10;;;9.60;99.90;;;;;;5094747;28;20213;-55
2022/01/02 10:31:07;;;;;;;33.70;22.83;;;9.70;99.90;;;;;;5094755;28;20231;-55
2022/01/02 10:33:52;;;;;;;29.10;21.40;;;9.60;99.90;;;;;;5094125;28;20214;-54
2022/01/02 10:36:28;;;;;;;38.13;33.23;;;9.60;99.90;;;;;;5095436;28;20228;-55
2022/01/02 10:39:09;;;;;;;29.50;22.40;;;9.70;99.90;;;;;;5099549;28;20207;-55
2022/01/02 10:41:38;;;;;;;27.43;20.23;;;9.70;99.90;;;;;;5092520;28;20219;-56
2022/01/02 10:44:26;;;;;;;30.00;22.20;;;9.60;99.90;;;;;;5099345;28;20259;-56
2022/01/02 10:47:11;;;;;;;32.33;24.77;;;9.70;99.90;;;;;;5093323;28;20217;-55
2022/01/02 10:50:06;;;;;;;29.50;22.50;;;9.70;99.90;;;;;;5101191;28;20200;-56
2022/01/02 10:52:36;;;;;;;29.57;21.97;;;9.70;99.90;;;;;;5078091;28;20257;-54
2022/01/02 10:55:14;;;;;;;27.67;20.63;;;9.70;99.90;;;;;;5094781;28;20235;-55
2022/01/02 10:57:43;;;;;;;26.37;20.67;;;9.60;99.90;;;;;;5099949;28;20245;-55
2022/01/02 11:00:12;;;;;;;32.20;22.83;;;9.60;99.90;;;;;;5101556;28;20554;-55
2022/01/02 11:02:40;;;;;;;32.87;23.50;;;9.50;99.90;;;;;;5100147;28;20693;-56
2022/01/02 11:05:12;;;;;;;29.10;21.23;;;9.50;99.90;;;;;;5103718;28;20204;-55
2022/01/02 11:07:42;;;;;;;27.63;22.33;;;9.40;99.90;;;;;;5106561;28;20304;-55
2022/01/02 11:10:11;;;;;;;28.00;22.37;;;9.40;99.90;;;;;;5100491;28;20203;-57
2022/01/02 11:12:40;;;;;;;29.60;21.83;;;9.40;99.90;;;;;;5102302;28;20737;-54
2022/01/02 11:15:11;;;;;;;30.80;22.27;;;9.30;99.90;;;;;;5110367;28;20712;-55
2022/01/02 11:17:39;;;;;;;26.47;20.90;;;9.20;99.90;;;;;;5106930;28;20861;-56
2022/01/02 11:20:12;;;;;;;29.47;21.67;;;9.20;99.90;;;;;;5108518;28;20265;-55
2022/01/02 11:22:44;;;;;;;25.07;20.43;;;9.10;99.90;;;;;;5113744;28;20200;-55
2022/01/02 11:25:25;;;;;;;30.83;22.33;;;9.10;99.90;;;;;;5106299;28;20246;-55
2022/01/02 11:27:58;;;;;;;26.47;20.87;;;9.10;99.90;;;;;;5098521;28;20215;-55
2022/01/02 11:30:37;;;;;;;27.37;20.83;;;9.10;99.90;;;;;;5092901;28;20802;-54
2022/01/02 11:33:08;;;;;;;25.97;20.07;;;9.00;99.90;;;;;;5117112;27;20198;-55
2022/01/02 11:35:39;;;;;;;27.93;21.30;;;9.00;99.90;;;;;;5122135;27;20227;-55
2022/01/02 11:38:08;;;;;;;26.50;21.07;;;8.90;99.90;;;;;;5102907;28;20201;-54
2022/01/02 11:40:48;;;;;;;26.10;20.70;;;8.90;99.90;;;;;;5110026;28;20192;-55
2022/01/02 11:43:51;;;;;;;26.63;20.67;;;9.00;99.90;;;;;;5114558;28;20610;-55
2022/01/02 11:46:21;;;;;;;26.80;19.90;;;9.00;99.90;;;;;;5115079;28;20222;-53
2022/01/02 11:49:15;;;;;;;25.40;20.17;;;9.00;99.90;;;;;;5102405;28;20200;-55
2022/01/02 11:52:08;;;;;;;25.93;21.03;;;9.10;99.90;;;;;;5112924;28;20736;-58
2022/01/02 11:55:00;;;;;;;23.90;19.13;;;9.20;99.90;;;;;;5104283;28;20196;-53
2022/01/02 11:57:55;;;;;;;24.97;19.83;;;9.30;99.90;;;;;;5073637;28;20264;-56
2022/01/02 12:00:48;;;;;;;24.50;19.03;;;9.40;99.90;;;;;;5103282;28;20258;-54
2022/01/02 12:03:56;;;;;;;23.83;17.90;;;9.50;99.90;;;;;;5093474;28;20196;-55
2022/01/02 12:06:33;;;;;;;23.30;18.17;;;9.50;99.90;;;;;;5088830;28;20228;-53
2022/01/02 12:09:05;;;;;;;20.77;17.33;;;9.40;99.90;;;;;;5098880;28;20794;-53
2022/01/02 12:11:45;;;;;;;19.93;15.87;;;9.50;99.90;;;;;;5096218;28;20241;-55
2022/01/02 12:14:22;;;;;;;21.87;17.13;;;9.50;99.90;;;;;;5094318;28;20656;-55
2022/01/02 12:16:56;;;;;;;18.70;15.93;;;9.60;99.90;;;;;;5092097;28;20260;-55
2022/01/02 12:19:26;;;;;;;20.70;16.37;;;9.70;99.90;;;;;;5098532;28;20262;-55
2022/01/02 12:22:13;;;;;;;20.23;16.63;;;9.80;99.90;;;;;;5098393;28;20199;-53
2022/01/02 12:24:44;;;;;;;19.93;15.83;;;9.80;99.90;;;;;;5094408;28;20251;-55
2022/01/02 12:27:13;;;;;;;20.57;15.40;;;9.80;99.90;;;;;;5092387;28;20231;-55
2022/01/02 12:29:42;;;;;;;19.63;16.60;;;9.70;99.90;;;;;;5094251;27;20650;-55
2022/01/02 12:32:11;;;;;;;19.23;15.63;;;9.60;99.90;;;;;;5093178;28;20236;-54
2022/01/02 12:34:40;;;;;;;19.13;15.50;;;9.60;99.90;;;;;;5098606;28;20271;-55
2022/01/02 12:37:09;;;;;;;18.20;15.30;;;9.60;99.90;;;;;;5095895;28;20227;-55
2022/01/02 12:39:40;;;;;;;18.90;15.10;;;9.70;99.90;;;;;;5094219;28;20677;-54
2022/01/02 12:42:14;;;;;;;17.77;14.90;;;9.80;99.90;;;;;;5100245;28;20872;-53
2022/01/02 12:44:43;;;;;;;22.17;15.73;;;9.80;99.90;;;;;;5092672;28;20204;-55
2022/01/02 12:47:19;;;;;;;18.30;15.17;;;9.60;99.90;;;;;;5096596;28;20292;-54
2022/01/02 12:49:48;;;;;;;20.80;15.50;;;9.80;99.90;;;;;;5105412;28;20211;-55
2022/01/02 12:52:18;;;;;;;19.27;15.90;;;9.90;99.90;;;;;;5112497;27;20205;-55
2022/01/02 12:54:49;;;;;;;18.30;16.00;;;10.00;99.90;;;;;;5109722;27;20249;-58
2022/01/02 12:57:21;;;;;;;17.73;14.93;;;10.00;99.90;;;;;;5107325;28;20223;-52
2022/01/02 12:59:50;;;;;;;18.87;15.50;;;10.00;99.90;;;;;;5097924;28;20200;-55